sensor_id;sensor_type;location;lat;lon;timestamp;P1;durP1;ratioP1;P2;durP2;ratioP2
67751;SDS011;54551;51.068;5.826;2022-08-21T00:01:49;10.67;;;6.97;;
67751;SDS011;54551;51.068;5.826;2022-08-21T00:04:15;7.53;;;6.73;;
67751;SDS011;54551;51.068;5.826;2022-08-21T00:06:41;8.10;;;7.23;;
67751;SDS011;54551;51.068;5.826;2022-08-21T00:09:08;8.43;;;7.67;;
67751;SDS011;54551;51.068;5.826;2022-08-21T00:11:35;9.57;;;8.00;;
67751;SDS011;54551;51.068;5.826;2022-08-21T00:14:03;7.93;;;7.20;;
67751;SDS011;54551;51.068;5.826;2022-08-21T00:16:31;8.13;;;7.33;;
67751;SDS011;54551;51.068;5.826;2022-08-21T00:18:57;9.20;;;7.70;;
67751;SDS011;54551;51.068;5.826;2022-08-21T00:21:23;12.30;;;8.20;;
67751;SDS011;54551;51.068;5.826;2022-08-21T00:23:50;9.20;;;7.93;;
67751;SDS011;54551;51.068;5.826;2022-08-21T00:26:16;12.27;;;8.10;;
67751;SDS011;54551;51.068;5.826;2022-08-21T00:28:43;8.73;;;7.90;;
67751;SDS011;54551;51.068;5.826;2022-08-21T00:31:10;7.73;;;6.93;;
67751;SDS011;54551;51.068;5.826;2022-08-21T00:33:37;9.63;;;6.90;;
67751;SDS011;54551;51.068;5.826;2022-08-21T00:36:03;8.30;;;7.50;;
67751;SDS011;54551;51.068;5.826;2022-08-21T00:38:29;8.73;;;7.57;;
67751;SDS011;54551;51.068;5.826;2022-08-21T00:40:57;9.03;;;8.13;;
67751;SDS011;54551;51.068;5.826;2022-08-21T00:43:27;8.47;;;7.50;;
67751;SDS011;54551;51.068;5.826;2022-08-21T00:45:55;9.50;;;7.87;;
67751;SDS011;54551;51.068;5.826;2022-08-21T00:48:22;9.60;;;8.03;;
67751;SDS011;54551;51.068;5.826;2022-08-21T00:50:56;8.33;;;7.50;;
67751;SDS011;54551;51.068;5.826;2022-08-21T00:53:31;8.10;;;7.30;;
67751;SDS011;54551;51.068;5.826;2022-08-21T00:56:00;8.57;;;7.77;;
67751;SDS011;54551;51.068;5.826;2022-08-21T00:58:28;9.10;;;7.97;;
67751;SDS011;54551;51.068;5.826;2022-08-21T01:00:56;8.30;;;7.50;;
67751;SDS011;54551;51.068;5.826;2022-08-21T01:03:23;10.47;;;6.90;;
67751;SDS011;54551;51.068;5.826;2022-08-21T01:05:51;7.50;;;6.80;;
67751;SDS011;54551;51.068;5.826;2022-08-21T01:08:17;9.20;;;7.53;;
67751;SDS011;54551;51.068;5.826;2022-08-21T01:10:44;8.03;;;7.13;;
67751;SDS011;54551;51.068;5.826;2022-08-21T01:13:13;8.53;;;7.30;;
67751;SDS011;54551;51.068;5.826;2022-08-21T01:15:43;8.30;;;7.40;;
67751;SDS011;54551;51.068;5.826;2022-08-21T01:18:12;9.20;;;7.63;;
67751;SDS011;54551;51.068;5.826;2022-08-21T01:20:41;8.90;;;8.00;;
67751;SDS011;54551;51.068;5.826;2022-08-21T01:23:11;11.40;;;8.53;;
67751;SDS011;54551;51.068;5.826;2022-08-21T01:25:37;10.37;;;8.30;;
67751;SDS011;54551;51.068;5.826;2022-08-21T01:28:09;8.90;;;8.13;;
67751;SDS011;54551;51.068;5.826;2022-08-21T01:30:38;9.67;;;8.77;;
67751;SDS011;54551;51.068;5.826;2022-08-21T01:33:05;11.20;;;8.63;;
67751;SDS011;54551;51.068;5.826;2022-08-21T01:35:31;10.63;;;8.77;;
67751;SDS011;54551;51.068;5.826;2022-08-21T01:37:57;11.03;;;9.30;;
67751;SDS011;54551;51.068;5.826;2022-08-21T01:40:23;9.23;;;8.33;;
67751;SDS011;54551;51.068;5.826;2022-08-21T01:42:49;9.80;;;8.50;;
67751;SDS011;54551;51.068;5.826;2022-08-21T01:45:15;10.50;;;8.50;;
67751;SDS011;54551;51.068;5.826;2022-08-21T01:47:42;11.40;;;8.77;;
67751;SDS011;54551;51.068;5.826;2022-08-21T01:50:10;10.97;;;8.17;;
67751;SDS011;54551;51.068;5.826;2022-08-21T01:52:38;8.47;;;7.63;;
67751;SDS011;54551;51.068;5.826;2022-08-21T01:55:05;10.10;;;7.87;;
67751;SDS011;54551;51.068;5.826;2022-08-21T01:57:32;8.17;;;7.37;;
67751;SDS011;54551;51.068;5.826;2022-08-21T01:59:59;9.07;;;7.43;;
67751;SDS011;54551;51.068;5.826;2022-08-21T02:02:25;8.80;;;7.67;;
67751;SDS011;54551;51.068;5.826;2022-08-21T02:04:51;7.80;;;7.10;;
67751;SDS011;54551;51.068;5.826;2022-08-21T02:07:17;8.57;;;7.17;;
67751;SDS011;54551;51.068;5.826;2022-08-21T02:09:43;8.03;;;7.27;;
67751;SDS011;54551;51.068;5.826;2022-08-21T02:12:10;8.73;;;7.83;;
67751;SDS011;54551;51.068;5.826;2022-08-21T02:14:37;10.57;;;7.90;;
67751;SDS011;54551;51.068;5.826;2022-08-21T02:17:03;9.37;;;6.97;;
67751;SDS011;54551;51.068;5.826;2022-08-21T02:19:29;7.37;;;6.60;;
67751;SDS011;54551;51.068;5.826;2022-08-21T02:21:55;7.23;;;6.63;;
67751;SDS011;54551;51.068;5.826;2022-08-21T02:24:21;10.53;;;6.77;;
67751;SDS011;54551;51.068;5.826;2022-08-21T02:26:47;6.93;;;6.20;;
67751;SDS011;54551;51.068;5.826;2022-08-21T02:29:13;8.17;;;6.63;;
67751;SDS011;54551;51.068;5.826;2022-08-21T02:31:39;9.17;;;5.83;;
67751;SDS011;54551;51.068;5.826;2022-08-21T02:34:04;9.30;;;6.10;;
67751;SDS011;54551;51.068;5.826;2022-08-21T02:36:30;10.13;;;6.67;;
67751;SDS011;54551;51.068;5.826;2022-08-21T02:38:56;9.97;;;6.10;;
67751;SDS011;54551;51.068;5.826;2022-08-21T02:41:22;6.77;;;6.00;;
67751;SDS011;54551;51.068;5.826;2022-08-21T02:43:48;8.30;;;5.77;;
67751;SDS011;54551;51.068;5.826;2022-08-21T02:46:15;7.13;;;6.03;;
67751;SDS011;54551;51.068;5.826;2022-08-21T02:48:43;7.10;;;5.73;;
67751;SDS011;54551;51.068;5.826;2022-08-21T02:51:18;9.30;;;5.97;;
67751;SDS011;54551;51.068;5.826;2022-08-21T02:53:45;6.47;;;4.43;;
67751;SDS011;54551;51.068;5.826;2022-08-21T02:56:13;6.60;;;4.73;;
67751;SDS011;54551;51.068;5.826;2022-08-21T02:58:46;9.37;;;5.33;;
67751;SDS011;54551;51.068;5.826;2022-08-21T03:01:15;7.70;;;5.37;;
67751;SDS011;54551;51.068;5.826;2022-08-21T03:03:41;7.37;;;5.63;;
67751;SDS011;54551;51.068;5.826;2022-08-21T03:06:10;12.33;;;5.93;;
67751;SDS011;54551;51.068;5.826;2022-08-21T03:08:38;9.87;;;5.07;;
67751;SDS011;54551;51.068;5.826;2022-08-21T03:11:05;6.67;;;5.00;;
67751;SDS011;54551;51.068;5.826;2022-08-21T03:13:32;7.67;;;4.93;;
67751;SDS011;54551;51.068;5.826;2022-08-21T03:15:58;7.37;;;4.77;;
67751;SDS011;54551;51.068;5.826;2022-08-21T03:18:24;7.73;;;5.30;;
67751;SDS011;54551;51.068;5.826;2022-08-21T03:20:50;8.80;;;4.27;;
67751;SDS011;54551;51.068;5.826;2022-08-21T03:23:16;9.27;;;4.80;;
67751;SDS011;54551;51.068;5.826;2022-08-21T03:25:43;9.40;;;4.90;;
67751;SDS011;54551;51.068;5.826;2022-08-21T03:28:12;8.87;;;4.43;;
67751;SDS011;54551;51.068;5.826;2022-08-21T03:30:40;7.37;;;4.90;;
67751;SDS011;54551;51.068;5.826;2022-08-21T03:33:07;8.40;;;4.20;;
67751;SDS011;54551;51.068;5.826;2022-08-21T03:35:34;8.50;;;4.93;;
67751;SDS011;54551;51.068;5.826;2022-08-21T03:38:00;6.60;;;4.90;;
67751;SDS011;54551;51.068;5.826;2022-08-21T03:40:26;8.93;;;4.77;;
67751;SDS011;54551;51.068;5.826;2022-08-21T03:42:52;8.20;;;4.47;;
67751;SDS011;54551;51.068;5.826;2022-08-21T03:45:18;5.50;;;4.20;;
67751;SDS011;54551;51.068;5.826;2022-08-21T03:50:23;9.67;;;4.70;;
67751;SDS011;54551;51.068;5.826;2022-08-21T03:52:51;10.07;;;5.27;;
67751;SDS011;54551;51.068;5.826;2022-08-21T03:55:16;10.70;;;4.77;;
67751;SDS011;54551;51.068;5.826;2022-08-21T03:57:43;6.63;;;4.53;;
67751;SDS011;54551;51.068;5.826;2022-08-21T04:00:09;8.63;;;4.57;;
67751;SDS011;54551;51.068;5.826;2022-08-21T04:02:37;8.27;;;4.67;;
67751;SDS011;54551;51.068;5.826;2022-08-21T04:05:04;7.03;;;4.20;;
67751;SDS011;54551;51.068;5.826;2022-08-21T04:07:31;11.00;;;4.90;;
67751;SDS011;54551;51.068;5.826;2022-08-21T04:09:57;7.93;;;4.60;;
67751;SDS011;54551;51.068;5.826;2022-08-21T04:12:23;9.20;;;4.87;;
67751;SDS011;54551;51.068;5.826;2022-08-21T04:14:49;8.53;;;4.30;;
67751;SDS011;54551;51.068;5.826;2022-08-21T04:17:16;5.77;;;4.70;;
67751;SDS011;54551;51.068;5.826;2022-08-21T04:19:43;9.10;;;4.60;;
67751;SDS011;54551;51.068;5.826;2022-08-21T04:22:09;9.00;;;4.83;;
67751;SDS011;54551;51.068;5.826;2022-08-21T04:24:35;8.77;;;4.60;;
67751;SDS011;54551;51.068;5.826;2022-08-21T04:27:01;8.73;;;4.20;;
67751;SDS011;54551;51.068;5.826;2022-08-21T04:29:27;7.50;;;4.77;;
67751;SDS011;54551;51.068;5.826;2022-08-21T04:31:52;5.23;;;4.17;;
67751;SDS011;54551;51.068;5.826;2022-08-21T04:34:18;9.60;;;4.63;;
67751;SDS011;54551;51.068;5.826;2022-08-21T04:36:44;9.00;;;4.50;;
67751;SDS011;54551;51.068;5.826;2022-08-21T04:39:10;8.73;;;4.33;;
67751;SDS011;54551;51.068;5.826;2022-08-21T04:41:36;7.47;;;4.30;;
67751;SDS011;54551;51.068;5.826;2022-08-21T04:44:02;7.00;;;3.83;;
67751;SDS011;54551;51.068;5.826;2022-08-21T04:46:29;8.67;;;4.00;;
67751;SDS011;54551;51.068;5.826;2022-08-21T04:48:55;11.40;;;4.57;;
67751;SDS011;54551;51.068;5.826;2022-08-21T04:51:25;5.30;;;3.97;;
67751;SDS011;54551;51.068;5.826;2022-08-21T04:53:56;9.07;;;4.83;;
67751;SDS011;54551;51.068;5.826;2022-08-21T04:56:29;7.63;;;4.00;;
67751;SDS011;54551;51.068;5.826;2022-08-21T04:59:01;8.07;;;4.23;;
67751;SDS011;54551;51.068;5.826;2022-08-21T05:01:30;7.67;;;4.30;;
67751;SDS011;54551;51.068;5.826;2022-08-21T05:03:59;6.03;;;4.10;;
67751;SDS011;54551;51.068;5.826;2022-08-21T05:06:28;7.57;;;4.87;;
67751;SDS011;54551;51.068;5.826;2022-08-21T05:08:56;7.17;;;4.03;;
67751;SDS011;54551;51.068;5.826;2022-08-21T05:11:23;9.13;;;4.80;;
67751;SDS011;54551;51.068;5.826;2022-08-21T05:13:49;7.50;;;4.67;;
67751;SDS011;54551;51.068;5.826;2022-08-21T05:16:15;8.47;;;4.63;;
67751;SDS011;54551;51.068;5.826;2022-08-21T05:18:42;7.20;;;4.17;;
67751;SDS011;54551;51.068;5.826;2022-08-21T05:21:08;7.50;;;4.00;;
67751;SDS011;54551;51.068;5.826;2022-08-21T05:23:35;7.40;;;4.10;;
67751;SDS011;54551;51.068;5.826;2022-08-21T05:26:01;7.33;;;4.03;;
67751;SDS011;54551;51.068;5.826;2022-08-21T05:28:29;8.37;;;4.20;;
67751;SDS011;54551;51.068;5.826;2022-08-21T05:30:56;8.97;;;4.63;;
67751;SDS011;54551;51.068;5.826;2022-08-21T05:33:22;6.10;;;3.93;;
67751;SDS011;54551;51.068;5.826;2022-08-21T05:35:51;7.43;;;3.57;;
67751;SDS011;54551;51.068;5.826;2022-08-21T05:38:21;8.00;;;3.80;;
67751;SDS011;54551;51.068;5.826;2022-08-21T05:40:47;9.57;;;4.00;;
67751;SDS011;54551;51.068;5.826;2022-08-21T05:43:14;8.77;;;3.90;;
67751;SDS011;54551;51.068;5.826;2022-08-21T05:45:40;7.87;;;3.50;;
67751;SDS011;54551;51.068;5.826;2022-08-21T05:48:07;8.60;;;4.03;;
67751;SDS011;54551;51.068;5.826;2022-08-21T05:50:34;10.73;;;4.20;;
67751;SDS011;54551;51.068;5.826;2022-08-21T05:53:00;6.57;;;3.60;;
67751;SDS011;54551;51.068;5.826;2022-08-21T05:55:26;5.43;;;3.80;;
67751;SDS011;54551;51.068;5.826;2022-08-21T05:57:52;10.07;;;4.17;;
67751;SDS011;54551;51.068;5.826;2022-08-21T06:00:17;11.03;;;4.70;;
67751;SDS011;54551;51.068;5.826;2022-08-21T06:02:43;9.97;;;4.37;;
67751;SDS011;54551;51.068;5.826;2022-08-21T06:05:09;9.10;;;4.03;;
67751;SDS011;54551;51.068;5.826;2022-08-21T06:07:35;9.73;;;4.10;;
67751;SDS011;54551;51.068;5.826;2022-08-21T06:10:01;9.20;;;3.93;;
67751;SDS011;54551;51.068;5.826;2022-08-21T06:12:28;4.47;;;3.47;;
67751;SDS011;54551;51.068;5.826;2022-08-21T06:14:54;7.40;;;3.73;;
67751;SDS011;54551;51.068;5.826;2022-08-21T06:17:19;7.30;;;3.97;;
67751;SDS011;54551;51.068;5.826;2022-08-21T06:19:49;11.23;;;3.90;;
67751;SDS011;54551;51.068;5.826;2022-08-21T06:22:16;8.73;;;3.70;;
67751;SDS011;54551;51.068;5.826;2022-08-21T06:24:42;8.47;;;4.30;;
67751;SDS011;54551;51.068;5.826;2022-08-21T06:27:09;8.53;;;4.00;;
67751;SDS011;54551;51.068;5.826;2022-08-21T06:29:35;13.20;;;4.40;;
67751;SDS011;54551;51.068;5.826;2022-08-21T06:32:02;8.37;;;3.33;;
67751;SDS011;54551;51.068;5.826;2022-08-21T06:34:28;7.47;;;3.90;;
67751;SDS011;54551;51.068;5.826;2022-08-21T06:36:54;7.10;;;3.90;;
67751;SDS011;54551;51.068;5.826;2022-08-21T06:39:20;8.10;;;4.50;;
67751;SDS011;54551;51.068;5.826;2022-08-21T06:41:46;8.83;;;4.87;;
67751;SDS011;54551;51.068;5.826;2022-08-21T06:44:12;12.07;;;4.30;;
67751;SDS011;54551;51.068;5.826;2022-08-21T06:46:41;10.13;;;4.23;;
67751;SDS011;54551;51.068;5.826;2022-08-21T06:49:07;9.90;;;3.83;;
67751;SDS011;54551;51.068;5.826;2022-08-21T06:51:33;6.73;;;3.70;;
67751;SDS011;54551;51.068;5.826;2022-08-21T06:53:59;5.93;;;2.93;;
67751;SDS011;54551;51.068;5.826;2022-08-21T06:56:25;6.87;;;3.70;;
67751;SDS011;54551;51.068;5.826;2022-08-21T06:58:51;10.27;;;3.50;;
67751;SDS011;54551;51.068;5.826;2022-08-21T07:01:17;7.43;;;3.70;;
67751;SDS011;54551;51.068;5.826;2022-08-21T07:03:46;7.67;;;3.27;;
67751;SDS011;54551;51.068;5.826;2022-08-21T07:06:12;4.73;;;2.87;;
67751;SDS011;54551;51.068;5.826;2022-08-21T07:08:38;5.77;;;2.90;;
67751;SDS011;54551;51.068;5.826;2022-08-21T07:11:07;9.23;;;3.37;;
67751;SDS011;54551;51.068;5.826;2022-08-21T07:13:37;7.50;;;2.77;;
67751;SDS011;54551;51.068;5.826;2022-08-21T07:16:03;6.17;;;2.97;;
67751;SDS011;54551;51.068;5.826;2022-08-21T07:18:29;3.93;;;2.70;;
67751;SDS011;54551;51.068;5.826;2022-08-21T07:20:55;4.77;;;2.57;;
67751;SDS011;54551;51.068;5.826;2022-08-21T07:23:22;3.90;;;2.50;;
67751;SDS011;54551;51.068;5.826;2022-08-21T07:25:54;8.93;;;2.77;;
67751;SDS011;54551;51.068;5.826;2022-08-21T07:28:20;4.77;;;2.57;;
67751;SDS011;54551;51.068;5.826;2022-08-21T07:30:49;3.07;;;2.00;;
67751;SDS011;54551;51.068;5.826;2022-08-21T07:33:17;4.70;;;2.40;;
67751;SDS011;54551;51.068;5.826;2022-08-21T07:35:43;5.10;;;2.10;;
67751;SDS011;54551;51.068;5.826;2022-08-21T07:38:09;6.97;;;2.53;;
67751;SDS011;54551;51.068;5.826;2022-08-21T07:40:35;6.13;;;2.73;;
67751;SDS011;54551;51.068;5.826;2022-08-21T07:43:01;6.73;;;2.40;;
67751;SDS011;54551;51.068;5.826;2022-08-21T07:45:27;4.33;;;2.30;;
67751;SDS011;54551;51.068;5.826;2022-08-21T07:47:54;5.00;;;2.00;;
67751;SDS011;54551;51.068;5.826;2022-08-21T07:50:20;3.70;;;1.87;;
67751;SDS011;54551;51.068;5.826;2022-08-21T07:52:46;4.07;;;1.87;;
67751;SDS011;54551;51.068;5.826;2022-08-21T07:55:13;4.80;;;1.80;;
67751;SDS011;54551;51.068;5.826;2022-08-21T07:57:42;4.30;;;2.00;;
67751;SDS011;54551;51.068;5.826;2022-08-21T08:00:11;7.77;;;2.40;;
67751;SDS011;54551;51.068;5.826;2022-08-21T08:02:39;4.80;;;2.00;;
67751;SDS011;54551;51.068;5.826;2022-08-21T08:05:07;5.53;;;2.07;;
67751;SDS011;54551;51.068;5.826;2022-08-21T08:07:34;6.13;;;2.50;;
67751;SDS011;54551;51.068;5.826;2022-08-21T08:10:01;6.80;;;2.30;;
67751;SDS011;54551;51.068;5.826;2022-08-21T08:12:28;4.10;;;1.67;;
67751;SDS011;54551;51.068;5.826;2022-08-21T08:14:58;4.43;;;1.67;;
67751;SDS011;54551;51.068;5.826;2022-08-21T08:17:25;7.20;;;1.97;;
67751;SDS011;54551;51.068;5.826;2022-08-21T08:19:51;4.70;;;1.80;;
67751;SDS011;54551;51.068;5.826;2022-08-21T08:22:20;3.97;;;1.60;;
67751;SDS011;54551;51.068;5.826;2022-08-21T08:24:50;4.23;;;1.57;;
67751;SDS011;54551;51.068;5.826;2022-08-21T08:27:17;5.40;;;1.73;;
67751;SDS011;54551;51.068;5.826;2022-08-21T08:29:44;3.90;;;1.80;;
67751;SDS011;54551;51.068;5.826;2022-08-21T08:32:10;3.43;;;1.70;;
67751;SDS011;54551;51.068;5.826;2022-08-21T08:34:37;4.90;;;1.70;;
67751;SDS011;54551;51.068;5.826;2022-08-21T08:37:04;3.83;;;1.43;;
67751;SDS011;54551;51.068;5.826;2022-08-21T08:39:31;3.13;;;1.60;;
67751;SDS011;54551;51.068;5.826;2022-08-21T08:42:08;3.90;;;1.73;;
67751;SDS011;54551;51.068;5.826;2022-08-21T08:44:40;3.80;;;1.67;;
67751;SDS011;54551;51.068;5.826;2022-08-21T08:47:08;3.20;;;1.97;;
67751;SDS011;54551;51.068;5.826;2022-08-21T08:49:38;5.07;;;1.97;;
67751;SDS011;54551;51.068;5.826;2022-08-21T08:52:20;4.73;;;1.53;;
67751;SDS011;54551;51.068;5.826;2022-08-21T08:57:35;2.10;;;1.47;;
67751;SDS011;54551;51.068;5.826;2022-08-21T09:00:05;4.70;;;1.60;;
67751;SDS011;54551;51.068;5.826;2022-08-21T09:02:36;3.07;;;1.40;;
67751;SDS011;54551;51.068;5.826;2022-08-21T09:05:04;4.27;;;1.50;;
67751;SDS011;54551;51.068;5.826;2022-08-21T09:17:49;5.40;;;1.67;;
67751;SDS011;54551;51.068;5.826;2022-08-21T09:28:44;3.28;;;1.55;;
67751;SDS011;54551;51.068;5.826;2022-08-21T09:34:03;5.45;;;1.52;;
67751;SDS011;54551;51.068;5.826;2022-08-21T09:36:45;3.83;;;1.60;;
67751;SDS011;54551;51.068;5.826;2022-08-21T09:39:22;5.15;;;1.80;;
67751;SDS011;54551;51.068;5.826;2022-08-21T09:42:00;3.88;;;1.70;;
67751;SDS011;54551;51.068;5.826;2022-08-21T09:44:30;3.00;;;1.55;;
67751;SDS011;54551;51.068;5.826;2022-08-21T09:46:58;2.78;;;1.63;;
67751;SDS011;54551;51.068;5.826;2022-08-21T09:49:32;3.72;;;1.75;;
67751;SDS011;54551;51.068;5.826;2022-08-21T09:52:03;5.25;;;1.83;;
67751;SDS011;54551;51.068;5.826;2022-08-21T09:54:41;4.22;;;1.90;;
67751;SDS011;54551;51.068;5.826;2022-08-21T09:57:16;4.05;;;1.77;;
67751;SDS011;54551;51.068;5.826;2022-08-21T10:00:20;4.57;;;2.10;;
67751;SDS011;54551;51.068;5.826;2022-08-21T10:02:51;4.60;;;2.05;;
67751;SDS011;54551;51.068;5.826;2022-08-21T10:05:26;5.15;;;1.88;;
67751;SDS011;54551;51.068;5.826;2022-08-21T10:07:55;4.03;;;1.85;;
67751;SDS011;54551;51.068;5.826;2022-08-21T10:10:23;6.07;;;1.83;;
67751;SDS011;54551;51.068;5.826;2022-08-21T10:16:02;4.97;;;1.90;;
67751;SDS011;54551;51.068;5.826;2022-08-21T10:19:32;4.18;;;1.80;;
67751;SDS011;54551;51.068;5.826;2022-08-21T10:24:09;3.65;;;1.60;;
67751;SDS011;54551;51.068;5.826;2022-08-21T10:30:06;3.35;;;1.52;;
67751;SDS011;54551;51.068;5.826;2022-08-21T10:35:31;2.63;;;1.50;;
67751;SDS011;54551;51.068;5.826;2022-08-21T10:38:31;4.63;;;1.70;;
67751;SDS011;54551;51.068;5.826;2022-08-21T10:44:01;5.05;;;1.95;;
67751;SDS011;54551;51.068;5.826;2022-08-21T10:46:47;3.60;;;1.52;;
67751;SDS011;54551;51.068;5.826;2022-08-21T10:55:06;4.43;;;1.85;;
67751;SDS011;54551;51.068;5.826;2022-08-21T11:00:19;4.38;;;1.98;;
67751;SDS011;54551;51.068;5.826;2022-08-21T11:02:59;3.95;;;2.05;;
67751;SDS011;54551;51.068;5.826;2022-08-21T11:05:32;3.72;;;1.80;;
67751;SDS011;54551;51.068;5.826;2022-08-21T11:08:21;2.20;;;1.48;;
67751;SDS011;54551;51.068;5.826;2022-08-21T11:10:59;3.53;;;1.65;;
67751;SDS011;54551;51.068;5.826;2022-08-21T11:13:50;2.50;;;1.40;;
67751;SDS011;54551;51.068;5.826;2022-08-21T11:27:34;3.45;;;1.60;;
67751;SDS011;54551;51.068;5.826;2022-08-21T11:30:06;2.70;;;1.35;;
67751;SDS011;54551;51.068;5.826;2022-08-21T11:38:07;2.50;;;1.50;;
67751;SDS011;54551;51.068;5.826;2022-08-21T11:43:40;2.90;;;1.70;;
67751;SDS011;54551;51.068;5.826;2022-08-21T11:46:16;2.60;;;1.50;;
67751;SDS011;54551;51.068;5.826;2022-08-21T11:51:27;2.10;;;1.50;;
67751;SDS011;54551;51.068;5.826;2022-08-21T11:54:09;3.88;;;1.50;;
67751;SDS011;54551;51.068;5.826;2022-08-21T11:56:46;3.55;;;1.67;;
67751;SDS011;54551;51.068;5.826;2022-08-21T11:59:36;2.33;;;1.40;;
67751;SDS011;54551;51.068;5.826;2022-08-21T12:02:03;5.82;;;1.75;;
67751;SDS011;54551;51.068;5.826;2022-08-21T12:04:41;3.28;;;1.63;;
67751;SDS011;54551;51.068;5.826;2022-08-21T12:07:17;2.22;;;1.35;;
67751;SDS011;54551;51.068;5.826;2022-08-21T12:09:54;1.85;;;1.20;;
67751;SDS011;54551;51.068;5.826;2022-08-21T12:17:54;3.80;;;1.50;;
67751;SDS011;54551;51.068;5.826;2022-08-21T12:20:36;2.38;;;1.48;;
67751;SDS011;54551;51.068;5.826;2022-08-21T12:23:26;3.88;;;1.77;;
67751;SDS011;54551;51.068;5.826;2022-08-21T12:28:50;2.33;;;1.17;;
67751;SDS011;54551;51.068;5.826;2022-08-21T12:31:17;3.47;;;1.50;;
67751;SDS011;54551;51.068;5.826;2022-08-21T12:33:53;2.40;;;1.27;;
67751;SDS011;54551;51.068;5.826;2022-08-21T12:36:26;3.00;;;1.48;;
67751;SDS011;54551;51.068;5.826;2022-08-21T12:39:11;3.67;;;1.60;;
67751;SDS011;54551;51.068;5.826;2022-08-21T12:42:00;3.15;;;1.40;;
67751;SDS011;54551;51.068;5.826;2022-08-21T12:44:39;5.32;;;1.70;;
67751;SDS011;54551;51.068;5.826;2022-08-21T12:47:14;3.97;;;1.73;;
67751;SDS011;54551;51.068;5.826;2022-08-21T12:50:05;2.08;;;1.35;;
67751;SDS011;54551;51.068;5.826;2022-08-21T12:52:40;3.65;;;1.33;;
67751;SDS011;54551;51.068;5.826;2022-08-21T12:55:11;2.90;;;1.63;;
67751;SDS011;54551;51.068;5.826;2022-08-21T12:57:39;2.63;;;1.30;;
67751;SDS011;54551;51.068;5.826;2022-08-21T13:00:10;4.65;;;1.77;;
67751;SDS011;54551;51.068;5.826;2022-08-21T13:02:47;3.90;;;1.60;;
67751;SDS011;54551;51.068;5.826;2022-08-21T13:05:29;4.45;;;1.73;;
67751;SDS011;54551;51.068;5.826;2022-08-21T13:07:58;3.42;;;1.58;;
67751;SDS011;54551;51.068;5.826;2022-08-21T13:10:30;3.80;;;1.45;;
67751;SDS011;54551;51.068;5.826;2022-08-21T13:12:58;3.33;;;1.40;;
67751;SDS011;54551;51.068;5.826;2022-08-21T13:15:33;4.28;;;1.75;;
67751;SDS011;54551;51.068;5.826;2022-08-21T13:18:02;4.15;;;1.50;;
67751;SDS011;54551;51.068;5.826;2022-08-21T13:20:36;2.83;;;1.42;;
67751;SDS011;54551;51.068;5.826;2022-08-21T13:23:18;3.83;;;2.47;;
67751;SDS011;54551;51.068;5.826;2022-08-21T13:25:46;3.45;;;1.52;;
67751;SDS011;54551;51.068;5.826;2022-08-21T13:28:12;6.97;;;2.42;;
67751;SDS011;54551;51.068;5.826;2022-08-21T13:30:49;4.28;;;1.85;;
67751;SDS011;54551;51.068;5.826;2022-08-21T13:33:17;3.83;;;1.85;;
67751;SDS011;54551;51.068;5.826;2022-08-21T13:36:06;3.85;;;1.75;;
67751;SDS011;54551;51.068;5.826;2022-08-21T13:38:36;3.15;;;1.50;;
67751;SDS011;54551;51.068;5.826;2022-08-21T13:41:12;2.83;;;1.50;;
67751;SDS011;54551;51.068;5.826;2022-08-21T13:43:56;3.92;;;1.77;;
67751;SDS011;54551;51.068;5.826;2022-08-21T13:46:24;3.50;;;1.52;;
67751;SDS011;54551;51.068;5.826;2022-08-21T13:48:53;4.82;;;1.52;;
67751;SDS011;54551;51.068;5.826;2022-08-21T13:51:20;4.13;;;1.67;;
67751;SDS011;54551;51.068;5.826;2022-08-21T13:53:47;6.10;;;2.00;;
67751;SDS011;54551;51.068;5.826;2022-08-21T13:56:30;5.45;;;1.92;;
67751;SDS011;54551;51.068;5.826;2022-08-21T13:58:58;5.70;;;2.20;;
67751;SDS011;54551;51.068;5.826;2022-08-21T14:03:55;3.78;;;1.73;;
67751;SDS011;54551;51.068;5.826;2022-08-21T14:06:27;4.55;;;1.90;;
67751;SDS011;54551;51.068;5.826;2022-08-21T14:08:58;3.05;;;1.55;;
67751;SDS011;54551;51.068;5.826;2022-08-21T14:11:27;5.13;;;2.80;;
67751;SDS011;54551;51.068;5.826;2022-08-21T14:14:04;4.93;;;2.00;;
67751;SDS011;54551;51.068;5.826;2022-08-21T14:19:27;3.60;;;1.38;;
67751;SDS011;54551;51.068;5.826;2022-08-21T14:25:05;4.40;;;1.92;;
67751;SDS011;54551;51.068;5.826;2022-08-21T14:27:32;6.40;;;2.25;;
67751;SDS011;54551;51.068;5.826;2022-08-21T14:30:14;3.83;;;2.22;;
67751;SDS011;54551;51.068;5.826;2022-08-21T14:32:43;3.03;;;1.75;;
67751;SDS011;54551;51.068;5.826;2022-08-21T14:35:10;3.28;;;1.60;;
67751;SDS011;54551;51.068;5.826;2022-08-21T14:37:37;3.25;;;1.45;;
67751;SDS011;54551;51.068;5.826;2022-08-21T14:40:06;3.35;;;1.55;;
67751;SDS011;54551;51.068;5.826;2022-08-21T14:42:32;12.50;;;1.80;;
67751;SDS011;54551;51.068;5.826;2022-08-21T14:45:00;5.07;;;2.20;;
67751;SDS011;54551;51.068;5.826;2022-08-21T14:47:39;3.92;;;1.50;;
67751;SDS011;54551;51.068;5.826;2022-08-21T14:50:05;3.90;;;1.70;;
67751;SDS011;54551;51.068;5.826;2022-08-21T14:52:31;4.40;;;1.67;;
67751;SDS011;54551;51.068;5.826;2022-08-21T14:54:57;5.40;;;1.83;;
67751;SDS011;54551;51.068;5.826;2022-08-21T14:57:23;7.47;;;2.97;;
67751;SDS011;54551;51.068;5.826;2022-08-21T14:59:51;3.00;;;1.27;;
67751;SDS011;54551;51.068;5.826;2022-08-21T15:02:17;3.65;;;1.58;;
67751;SDS011;54551;51.068;5.826;2022-08-21T15:04:43;5.38;;;1.80;;
67751;SDS011;54551;51.068;5.826;2022-08-21T15:07:08;3.15;;;1.40;;
67751;SDS011;54551;51.068;5.826;2022-08-21T15:09:34;4.45;;;1.80;;
67751;SDS011;54551;51.068;5.826;2022-08-21T15:12:00;5.15;;;1.40;;
67751;SDS011;54551;51.068;5.826;2022-08-21T15:14:29;4.53;;;1.40;;
67751;SDS011;54551;51.068;5.826;2022-08-21T15:16:57;6.05;;;2.00;;
67751;SDS011;54551;51.068;5.826;2022-08-21T15:19:23;5.97;;;1.65;;
67751;SDS011;54551;51.068;5.826;2022-08-21T15:21:49;3.97;;;1.73;;
67751;SDS011;54551;51.068;5.826;2022-08-21T15:24:15;2.75;;;1.30;;
67751;SDS011;54551;51.068;5.826;2022-08-21T15:26:41;3.40;;;1.20;;
67751;SDS011;54551;51.068;5.826;2022-08-21T15:29:09;3.08;;;1.55;;
67751;SDS011;54551;51.068;5.826;2022-08-21T15:31:35;4.20;;;1.83;;
67751;SDS011;54551;51.068;5.826;2022-08-21T15:34:01;4.40;;;1.60;;
67751;SDS011;54551;51.068;5.826;2022-08-21T15:36:28;5.50;;;1.85;;
67751;SDS011;54551;51.068;5.826;2022-08-21T15:38:53;5.43;;;1.50;;
67751;SDS011;54551;51.068;5.826;2022-08-21T15:41:19;3.95;;;1.50;;
67751;SDS011;54551;51.068;5.826;2022-08-21T15:43:46;5.18;;;2.00;;
67751;SDS011;54551;51.068;5.826;2022-08-21T15:46:15;6.63;;;2.00;;
67751;SDS011;54551;51.068;5.826;2022-08-21T15:48:42;3.75;;;1.42;;
67751;SDS011;54551;51.068;5.826;2022-08-21T15:51:10;5.35;;;2.00;;
67751;SDS011;54551;51.068;5.826;2022-08-21T15:53:36;3.97;;;1.50;;
67751;SDS011;54551;51.068;5.826;2022-08-21T15:56:27;4.03;;;1.73;;
67751;SDS011;54551;51.068;5.826;2022-08-21T15:58:53;6.20;;;1.73;;
67751;SDS011;54551;51.068;5.826;2022-08-21T16:01:25;4.05;;;1.83;;
67751;SDS011;54551;51.068;5.826;2022-08-21T16:03:51;4.60;;;1.90;;
67751;SDS011;54551;51.068;5.826;2022-08-21T16:06:19;3.33;;;1.60;;
67751;SDS011;54551;51.068;5.826;2022-08-21T16:08:44;4.55;;;2.03;;
67751;SDS011;54551;51.068;5.826;2022-08-21T16:11:13;5.32;;;2.25;;
67751;SDS011;54551;51.068;5.826;2022-08-21T16:13:41;5.43;;;2.80;;
67751;SDS011;54551;51.068;5.826;2022-08-21T16:16:12;5.55;;;2.42;;
67751;SDS011;54551;51.068;5.826;2022-08-21T16:18:41;6.07;;;3.78;;
67751;SDS011;54551;51.068;5.826;2022-08-21T16:21:08;5.90;;;2.20;;
67751;SDS011;54551;51.068;5.826;2022-08-21T16:23:34;5.70;;;1.92;;
67751;SDS011;54551;51.068;5.826;2022-08-21T16:26:01;5.57;;;1.88;;
67751;SDS011;54551;51.068;5.826;2022-08-21T16:28:28;4.85;;;1.63;;